sensor_id;sensor_type;location;lat;lon;timestamp;temperature;humidity
16174;DHT22;14031;50.158;8.626;2023-06-10T00:01:15;21.70;99.90
16174;DHT22;14031;50.158;8.626;2023-06-10T00:03:41;21.70;99.90
16174;DHT22;14031;50.158;8.626;2023-06-10T00:06:11;21.70;99.90
16174;DHT22;14031;50.158;8.626;2023-06-10T00:08:37;21.60;99.90
16174;DHT22;14031;50.158;8.626;2023-06-10T00:11:05;21.60;99.90
16174;DHT22;14031;50.158;8.626;2023-06-10T00:13:32;21.60;99.90
16174;DHT22;14031;50.158;8.626;2023-06-10T00:15:58;21.60;99.90
16174;DHT22;14031;50.158;8.626;2023-06-10T00:18:25;21.50;99.90
16174;DHT22;14031;50.158;8.626;2023-06-10T00:20:54;21.60;99.90
16174;DHT22;14031;50.158;8.626;2023-06-10T00:23:24;21.50;99.90
16174;DHT22;14031;50.158;8.626;2023-06-10T00:25:51;21.40;99.90
16174;DHT22;14031;50.158;8.626;2023-06-10T00:28:18;21.40;99.90
16174;DHT22;14031;50.158;8.626;2023-06-10T00:30:44;21.30;99.90
16174;DHT22;14031;50.158;8.626;2023-06-10T00:33:11;21.30;99.90
16174;DHT22;14031;50.158;8.626;2023-06-10T00:35:38;21.30;99.90
16174;DHT22;14031;50.158;8.626;2023-06-10T00:38:05;21.20;99.90
16174;DHT22;14031;50.158;8.626;2023-06-10T00:40:39;21.20;99.90
16174;DHT22;14031;50.158;8.626;2023-06-10T00:43:06;21.20;99.90
16174;DHT22;14031;50.158;8.626;2023-06-10T00:45:33;21.10;99.90
16174;DHT22;14031;50.158;8.626;2023-06-10T00:48:00;21.10;99.90
16174;DHT22;14031;50.158;8.626;2023-06-10T00:50:28;21.00;99.90
16174;DHT22;14031;50.158;8.626;2023-06-10T00:52:55;20.90;99.90
16174;DHT22;14031;50.158;8.626;2023-06-10T00:55:23;20.90;99.90
16174;DHT22;14031;50.158;8.626;2023-06-10T00:57:51;20.90;99.90
16174;DHT22;14031;50.158;8.626;2023-06-10T01:00:18;20.80;99.90
16174;DHT22;14031;50.158;8.626;2023-06-10T01:02:46;20.80;99.90
16174;DHT22;14031;50.158;8.626;2023-06-10T01:05:13;20.70;99.90
16174;DHT22;14031;50.158;8.626;2023-06-10T01:07:45;20.70;99.90
16174;DHT22;14031;50.158;8.626;2023-06-10T01:10:19;20.70;99.90
16174;DHT22;14031;50.158;8.626;2023-06-10T01:12:52;20.50;99.90
16174;DHT22;14031;50.158;8.626;2023-06-10T01:15:22;20.60;99.90
16174;DHT22;14031;50.158;8.626;2023-06-10T01:17:56;20.50;99.90
16174;DHT22;14031;50.158;8.626;2023-06-10T01:20:23;20.40;99.90
16174;DHT22;14031;50.158;8.626;2023-06-10T01:22:53;20.40;99.90
16174;DHT22;14031;50.158;8.626;2023-06-10T01:25:21;20.50;99.90
16174;DHT22;14031;50.158;8.626;2023-06-10T01:27:54;20.40;99.90
16174;DHT22;14031;50.158;8.626;2023-06-10T01:30:27;20.30;99.90
16174;DHT22;14031;50.158;8.626;2023-06-10T01:32:59;20.20;99.90
16174;DHT22;14031;50.158;8.626;2023-06-10T01:35:28;20.30;99.90
16174;DHT22;14031;50.158;8.626;2023-06-10T01:37:58;20.20;99.90
16174;DHT22;14031;50.158;8.626;2023-06-10T01:40:25;20.20;99.90
16174;DHT22;14031;50.158;8.626;2023-06-10T01:42:53;20.20;99.90
16174;DHT22;14031;50.158;8.626;2023-06-10T01:45:20;20.20;99.90
16174;DHT22;14031;50.158;8.626;2023-06-10T01:47:46;20.20;99.90
16174;DHT22;14031;50.158;8.626;2023-06-10T01:50:13;20.20;99.90
16174;DHT22;14031;50.158;8.626;2023-06-10T01:52:40;20.10;99.90
16174;DHT22;14031;50.158;8.626;2023-06-10T01:55:08;20.10;99.90
16174;DHT22;14031;50.158;8.626;2023-06-10T01:57:35;20.10;99.90
16174;DHT22;14031;50.158;8.626;2023-06-10T02:00:02;20.10;99.90
16174;DHT22;14031;50.158;8.626;2023-06-10T02:02:29;20.00;99.90
16174;DHT22;14031;50.158;8.626;2023-06-10T02:04:56;20.00;99.90
16174;DHT22;14031;50.158;8.626;2023-06-10T02:07:23;19.80;99.90
16174;DHT22;14031;50.158;8.626;2023-06-10T02:09:50;19.80;99.90
16174;DHT22;14031;50.158;8.626;2023-06-10T02:12:18;19.90;99.90
16174;DHT22;14031;50.158;8.626;2023-06-10T02:14:44;19.90;99.90
16174;DHT22;14031;50.158;8.626;2023-06-10T02:17:11;19.90;99.90
16174;DHT22;14031;50.158;8.626;2023-06-10T02:19:40;19.80;99.90
16174;DHT22;14031;50.158;8.626;2023-06-10T02:22:08;19.90;99.90
16174;DHT22;14031;50.158;8.626;2023-06-10T02:24:35;19.80;99.90
16174;DHT22;14031;50.158;8.626;2023-06-10T02:27:04;19.80;99.90
16174;DHT22;14031;50.158;8.626;2023-06-10T02:29:33;19.80;99.90
16174;DHT22;14031;50.158;8.626;2023-06-10T02:32:01;19.70;99.90
16174;DHT22;14031;50.158;8.626;2023-06-10T02:34:28;19.70;99.90
16174;DHT22;14031;50.158;8.626;2023-06-10T02:36:55;19.70;99.90
16174;DHT22;14031;50.158;8.626;2023-06-10T02:39:21;19.70;99.90
16174;DHT22;14031;50.158;8.626;2023-06-10T02:41:48;19.60;99.90
16174;DHT22;14031;50.158;8.626;2023-06-10T02:44:15;19.60;99.90
16174;DHT22;14031;50.158;8.626;2023-06-10T02:46:43;19.60;99.90
16174;DHT22;14031;50.158;8.626;2023-06-10T02:49:11;19.70;99.90
16174;DHT22;14031;50.158;8.626;2023-06-10T02:51:38;19.60;99.90
16174;DHT22;14031;50.158;8.626;2023-06-10T02:54:05;19.50;99.90
16174;DHT22;14031;50.158;8.626;2023-06-10T02:56:32;19.50;99.90
16174;DHT22;14031;50.158;8.626;2023-06-10T02:58:59;19.50;99.90
16174;DHT22;14031;50.158;8.626;2023-06-10T03:01:26;19.40;99.90
16174;DHT22;14031;50.158;8.626;2023-06-10T03:03:54;19.50;99.90
16174;DHT22;14031;50.158;8.626;2023-06-10T03:06:21;19.40;99.90
16174;DHT22;14031;50.158;8.626;2023-06-10T03:08:50;19.40;99.90
16174;DHT22;14031;50.158;8.626;2023-06-10T03:11:16;19.30;99.90
16174;DHT22;14031;50.158;8.626;2023-06-10T03:13:44;19.40;99.90
16174;DHT22;14031;50.158;8.626;2023-06-10T03:16:12;19.40;99.90
16174;DHT22;14031;50.158;8.626;2023-06-10T03:18:38;19.30;99.90
16174;DHT22;14031;50.158;8.626;2023-06-10T03:21:07;19.30;99.90
16174;DHT22;14031;50.158;8.626;2023-06-10T03:23:34;19.30;99.90
16174;DHT22;14031;50.158;8.626;2023-06-10T03:26:01;19.20;99.90
16174;DHT22;14031;50.158;8.626;2023-06-10T03:28:27;19.20;99.90
16174;DHT22;14031;50.158;8.626;2023-06-10T03:30:54;19.20;99.90
16174;DHT22;14031;50.158;8.626;2023-06-10T03:33:21;19.30;99.90
16174;DHT22;14031;50.158;8.626;2023-06-10T03:35:48;19.20;99.90
16174;DHT22;14031;50.158;8.626;2023-06-10T03:38:16;19.20;99.90
16174;DHT22;14031;50.158;8.626;2023-06-10T03:40:43;19.20;99.90
16174;DHT22;14031;50.158;8.626;2023-06-10T03:43:10;19.20;99.90
16174;DHT22;14031;50.158;8.626;2023-06-10T03:45:37;19.10;99.90
16174;DHT22;14031;50.158;8.626;2023-06-10T03:48:04;19.20;99.90
16174;DHT22;14031;50.158;8.626;2023-06-10T03:50:31;19.20;99.90
16174;DHT22;14031;50.158;8.626;2023-06-10T03:52:58;19.20;99.90
16174;DHT22;14031;50.158;8.626;2023-06-10T03:55:26;19.20;99.90
16174;DHT22;14031;50.158;8.626;2023-06-10T03:57:53;19.10;99.90
16174;DHT22;14031;50.158;8.626;2023-06-10T04:00:20;19.10;99.90
16174;DHT22;14031;50.158;8.626;2023-06-10T04:02:47;19.20;99.90
16174;DHT22;14031;50.158;8.626;2023-06-10T04:05:18;19.10;99.90
16174;DHT22;14031;50.158;8.626;2023-06-10T04:07:46;19.10;99.90
16174;DHT22;14031;50.158;8.626;2023-06-10T04:10:14;19.10;99.90
16174;DHT22;14031;50.158;8.626;2023-06-10T04:12:43;19.10;99.90
16174;DHT22;14031;50.158;8.626;2023-06-10T04:15:10;19.20;99.90
16174;DHT22;14031;50.158;8.626;2023-06-10T04:17:38;19.10;99.90
16174;DHT22;14031;50.158;8.626;2023-06-10T04:20:06;19.10;99.90
16174;DHT22;14031;50.158;8.626;2023-06-10T04:22:35;19.10;99.90
16174;DHT22;14031;50.158;8.626;2023-06-10T04:25:01;19.20;99.90
16174;DHT22;14031;50.158;8.626;2023-06-10T04:27:29;19.20;99.90
16174;DHT22;14031;50.158;8.626;2023-06-10T04:29:57;19.20;99.90
16174;DHT22;14031;50.158;8.626;2023-06-10T04:32:24;19.10;99.90
16174;DHT22;14031;50.158;8.626;2023-06-10T04:34:51;19.30;99.90
16174;DHT22;14031;50.158;8.626;2023-06-10T04:37:17;19.20;99.90
16174;DHT22;14031;50.158;8.626;2023-06-10T04:39:45;19.30;99.90
16174;DHT22;14031;50.158;8.626;2023-06-10T04:42:12;19.30;99.90
16174;DHT22;14031;50.158;8.626;2023-06-10T04:44:39;19.30;99.90
16174;DHT22;14031;50.158;8.626;2023-06-10T04:47:07;19.30;99.90
16174;DHT22;14031;50.158;8.626;2023-06-10T04:49:34;19.30;99.90
16174;DHT22;14031;50.158;8.626;2023-06-10T04:52:02;19.40;99.90
16174;DHT22;14031;50.158;8.626;2023-06-10T04:54:29;19.50;99.90
16174;DHT22;14031;50.158;8.626;2023-06-10T04:56:56;19.60;99.90
16174;DHT22;14031;50.158;8.626;2023-06-10T04:59:23;19.80;99.90
16174;DHT22;14031;50.158;8.626;2023-06-10T05:01:50;19.90;99.90
16174;DHT22;14031;50.158;8.626;2023-06-10T05:04:18;19.80;99.90
16174;DHT22;14031;50.158;8.626;2023-06-10T05:06:45;19.70;99.90
16174;DHT22;14031;50.158;8.626;2023-06-10T05:09:11;19.70;99.90
16174;DHT22;14031;50.158;8.626;2023-06-10T05:11:38;19.70;99.90
16174;DHT22;14031;50.158;8.626;2023-06-10T05:14:05;19.70;99.90
16174;DHT22;14031;50.158;8.626;2023-06-10T05:16:32;19.70;99.90
16174;DHT22;14031;50.158;8.626;2023-06-10T05:18:58;19.70;99.90
16174;DHT22;14031;50.158;8.626;2023-06-10T05:21:27;19.70;99.90
16174;DHT22;14031;50.158;8.626;2023-06-10T05:23:54;19.80;99.90
16174;DHT22;14031;50.158;8.626;2023-06-10T05:26:21;19.80;99.90
16174;DHT22;14031;50.158;8.626;2023-06-10T05:28:48;19.90;99.90
16174;DHT22;14031;50.158;8.626;2023-06-10T05:31:15;20.00;99.90
16174;DHT22;14031;50.158;8.626;2023-06-10T05:33:41;20.10;99.90
16174;DHT22;14031;50.158;8.626;2023-06-10T05:36:08;20.00;99.90
16174;DHT22;14031;50.158;8.626;2023-06-10T05:38:36;20.20;99.90
16174;DHT22;14031;50.158;8.626;2023-06-10T05:41:03;20.20;99.90
16174;DHT22;14031;50.158;8.626;2023-06-10T05:43:30;20.20;99.90
16174;DHT22;14031;50.158;8.626;2023-06-10T05:45:56;20.40;99.90
16174;DHT22;14031;50.158;8.626;2023-06-10T05:48:23;20.40;99.90
16174;DHT22;14031;50.158;8.626;2023-06-10T05:50:50;20.40;99.90
16174;DHT22;14031;50.158;8.626;2023-06-10T05:53:17;20.50;99.90
16174;DHT22;14031;50.158;8.626;2023-06-10T05:55:46;20.50;99.90
16174;DHT22;14031;50.158;8.626;2023-06-10T05:58:13;20.60;99.90
16174;DHT22;14031;50.158;8.626;2023-06-10T06:00:40;20.70;99.90
16174;DHT22;14031;50.158;8.626;2023-06-10T06:03:08;20.80;99.90
16174;DHT22;14031;50.158;8.626;2023-06-10T06:05:35;20.80;99.90
16174;DHT22;14031;50.158;8.626;2023-06-10T06:08:03;20.90;99.90
16174;DHT22;14031;50.158;8.626;2023-06-10T06:10:31;21.00;99.90
16174;DHT22;14031;50.158;8.626;2023-06-10T06:12:59;21.00;99.90
16174;DHT22;14031;50.158;8.626;2023-06-10T06:15:26;21.10;99.90
16174;DHT22;14031;50.158;8.626;2023-06-10T06:17:53;21.20;99.90
16174;DHT22;14031;50.158;8.626;2023-06-10T06:20:21;21.30;99.90
16174;DHT22;14031;50.158;8.626;2023-06-10T06:22:48;21.40;99.90
16174;DHT22;14031;50.158;8.626;2023-06-10T06:25:15;21.40;99.90
16174;DHT22;14031;50.158;8.626;2023-06-10T06:27:42;21.50;99.90
16174;DHT22;14031;50.158;8.626;2023-06-10T06:30:11;21.60;99.90
16174;DHT22;14031;50.158;8.626;2023-06-10T06:32:38;21.60;99.90
16174;DHT22;14031;50.158;8.626;2023-06-10T06:35:05;21.70;99.90
16174;DHT22;14031;50.158;8.626;2023-06-10T06:37:33;21.70;99.90
16174;DHT22;14031;50.158;8.626;2023-06-10T06:40:00;21.80;99.90
16174;DHT22;14031;50.158;8.626;2023-06-10T06:42:28;22.00;99.90
16174;DHT22;14031;50.158;8.626;2023-06-10T06:44:55;22.00;99.90
16174;DHT22;14031;50.158;8.626;2023-06-10T06:47:23;22.10;99.90
16174;DHT22;14031;50.158;8.626;2023-06-10T06:49:52;22.20;99.90
16174;DHT22;14031;50.158;8.626;2023-06-10T06:52:18;22.30;99.90
16174;DHT22;14031;50.158;8.626;2023-06-10T06:54:45;22.30;99.90
16174;DHT22;14031;50.158;8.626;2023-06-10T06:57:12;22.40;99.90
16174;DHT22;14031;50.158;8.626;2023-06-10T06:59:39;22.50;99.90
16174;DHT22;14031;50.158;8.626;2023-06-10T07:02:05;22.50;99.90
16174;DHT22;14031;50.158;8.626;2023-06-10T07:04:34;22.50;99.90
16174;DHT22;14031;50.158;8.626;2023-06-10T07:07:00;22.70;99.90
16174;DHT22;14031;50.158;8.626;2023-06-10T07:09:27;22.80;99.90
16174;DHT22;14031;50.158;8.626;2023-06-10T07:11:54;22.80;99.90
16174;DHT22;14031;50.158;8.626;2023-06-10T07:14:21;22.90;99.90
16174;DHT22;14031;50.158;8.626;2023-06-10T07:16:48;22.90;99.90
16174;DHT22;14031;50.158;8.626;2023-06-10T07:19:15;23.00;99.90
16174;DHT22;14031;50.158;8.626;2023-06-10T07:21:43;23.10;99.90
16174;DHT22;14031;50.158;8.626;2023-06-10T07:24:10;23.20;99.90
16174;DHT22;14031;50.158;8.626;2023-06-10T07:26:37;23.30;99.90
16174;DHT22;14031;50.158;8.626;2023-06-10T07:29:03;23.50;99.90
16174;DHT22;14031;50.158;8.626;2023-06-10T07:31:30;23.50;99.90
16174;DHT22;14031;50.158;8.626;2023-06-10T07:33:57;23.60;99.90
16174;DHT22;14031;50.158;8.626;2023-06-10T07:36:24;23.70;99.90
16174;DHT22;14031;50.158;8.626;2023-06-10T07:38:54;23.70;99.90
16174;DHT22;14031;50.158;8.626;2023-06-10T07:41:22;23.70;99.90
16174;DHT22;14031;50.158;8.626;2023-06-10T07:43:50;23.80;99.90
16174;DHT22;14031;50.158;8.626;2023-06-10T07:46:20;23.80;99.90
16174;DHT22;14031;50.158;8.626;2023-06-10T07:48:46;23.90;99.90
16174;DHT22;14031;50.158;8.626;2023-06-10T07:51:14;23.90;99.90
16174;DHT22;14031;50.158;8.626;2023-06-10T07:53:41;24.00;99.90
16174;DHT22;14031;50.158;8.626;2023-06-10T07:56:09;24.00;99.90
16174;DHT22;14031;50.158;8.626;2023-06-10T07:58:36;24.10;99.90
16174;DHT22;14031;50.158;8.626;2023-06-10T08:01:02;24.10;99.90
16174;DHT22;14031;50.158;8.626;2023-06-10T08:03:29;24.30;99.90
16174;DHT22;14031;50.158;8.626;2023-06-10T08:05:56;24.30;99.90
16174;DHT22;14031;50.158;8.626;2023-06-10T08:08:23;24.40;99.90
16174;DHT22;14031;50.158;8.626;2023-06-10T08:10:49;24.50;99.90
16174;DHT22;14031;50.158;8.626;2023-06-10T08:13:18;24.60;99.90
16174;DHT22;14031;50.158;8.626;2023-06-10T08:15:44;24.70;99.90
16174;DHT22;14031;50.158;8.626;2023-06-10T08:18:13;24.70;99.90
16174;DHT22;14031;50.158;8.626;2023-06-10T08:20:40;24.80;99.90
16174;DHT22;14031;50.158;8.626;2023-06-10T08:23:07;24.90;99.90
16174;DHT22;14031;50.158;8.626;2023-06-10T08:25:33;24.90;99.90
16174;DHT22;14031;50.158;8.626;2023-06-10T08:28:00;25.00;99.90
16174;DHT22;14031;50.158;8.626;2023-06-10T08:30:28;25.00;99.90
16174;DHT22;14031;50.158;8.626;2023-06-10T08:32:55;25.10;99.90
16174;DHT22;14031;50.158;8.626;2023-06-10T08:35:22;25.20;99.90
16174;DHT22;14031;50.158;8.626;2023-06-10T08:37:49;25.20;99.90
16174;DHT22;14031;50.158;8.626;2023-06-10T08:40:16;25.30;99.90
16174;DHT22;14031;50.158;8.626;2023-06-10T08:42:47;25.40;99.90
16174;DHT22;14031;50.158;8.626;2023-06-10T08:45:17;25.50;99.90
16174;DHT22;14031;50.158;8.626;2023-06-10T08:47:46;25.70;99.90
16174;DHT22;14031;50.158;8.626;2023-06-10T08:50:16;25.70;99.90
16174;DHT22;14031;50.158;8.626;2023-06-10T08:52:44;25.70;99.90
16174;DHT22;14031;50.158;8.626;2023-06-10T08:55:15;25.70;99.90
16174;DHT22;14031;50.158;8.626;2023-06-10T08:57:45;25.80;99.90
16174;DHT22;14031;50.158;8.626;2023-06-10T09:00:14;25.90;99.90
16174;DHT22;14031;50.158;8.626;2023-06-10T09:02:45;25.90;99.90
16174;DHT22;14031;50.158;8.626;2023-06-10T09:05:13;26.00;99.90
16174;DHT22;14031;50.158;8.626;2023-06-10T09:07:40;26.10;99.90
16174;DHT22;14031;50.158;8.626;2023-06-10T09:10:08;26.10;99.90
16174;DHT22;14031;50.158;8.626;2023-06-10T09:12:35;26.20;99.90
16174;DHT22;14031;50.158;8.626;2023-06-10T09:15:04;26.40;99.90
16174;DHT22;14031;50.158;8.626;2023-06-10T09:17:31;26.40;99.90
16174;DHT22;14031;50.158;8.626;2023-06-10T09:20:00;26.60;99.90
16174;DHT22;14031;50.158;8.626;2023-06-10T09:22:28;26.60;99.90
16174;DHT22;14031;50.158;8.626;2023-06-10T09:25:03;26.60;99.90
16174;DHT22;14031;50.158;8.626;2023-06-10T09:27:31;26.60;99.90
16174;DHT22;14031;50.158;8.626;2023-06-10T09:29:59;26.70;99.90
16174;DHT22;14031;50.158;8.626;2023-06-10T09:32:26;26.90;99.90
16174;DHT22;14031;50.158;8.626;2023-06-10T09:34:54;27.10;99.90
16174;DHT22;14031;50.158;8.626;2023-06-10T09:37:23;27.20;99.90
16174;DHT22;14031;50.158;8.626;2023-06-10T09:40:03;27.30;99.90
16174;DHT22;14031;50.158;8.626;2023-06-10T09:42:32;27.40;99.90
16174;DHT22;14031;50.158;8.626;2023-06-10T09:45:00;27.40;99.90
16174;DHT22;14031;50.158;8.626;2023-06-10T09:47:27;27.40;99.90
16174;DHT22;14031;50.158;8.626;2023-06-10T09:49:54;27.40;99.90
16174;DHT22;14031;50.158;8.626;2023-06-10T09:52:23;27.40;99.90
16174;DHT22;14031;50.158;8.626;2023-06-10T09:54:50;27.40;99.90
16174;DHT22;14031;50.158;8.626;2023-06-10T09:57:18;27.50;99.90
16174;DHT22;14031;50.158;8.626;2023-06-10T09:59:45;27.50;99.90
16174;DHT22;14031;50.158;8.626;2023-06-10T10:02:14;27.60;99.90
16174;DHT22;14031;50.158;8.626;2023-06-10T10:04:41;27.70;99.90
16174;DHT22;14031;50.158;8.626;2023-06-10T10:07:08;27.80;99.90
16174;DHT22;14031;50.158;8.626;2023-06-10T10:09:37;27.80;99.90
16174;DHT22;14031;50.158;8.626;2023-06-10T10:12:09;28.00;99.90
16174;DHT22;14031;50.158;8.626;2023-06-10T10:14:37;28.10;99.90
16174;DHT22;14031;50.158;8.626;2023-06-10T10:17:05;28.20;99.90
16174;DHT22;14031;50.158;8.626;2023-06-10T10:19:37;28.20;99.90
16174;DHT22;14031;50.158;8.626;2023-06-10T10:22:08;28.30;99.90
16174;DHT22;14031;50.158;8.626;2023-06-10T10:24:42;28.40;99.90
16174;DHT22;14031;50.158;8.626;2023-06-10T10:27:18;28.50;99.90
16174;DHT22;14031;50.158;8.626;2023-06-10T10:29:48;28.70;99.90
16174;DHT22;14031;50.158;8.626;2023-06-10T10:32:18;28.80;99.90
16174;DHT22;14031;50.158;8.626;2023-06-10T10:34:50;28.80;99.90
16174;DHT22;14031;50.158;8.626;2023-06-10T10:37:20;29.00;99.90
16174;DHT22;14031;50.158;8.626;2023-06-10T10:39:48;29.00;99.90
16174;DHT22;14031;50.158;8.626;2023-06-10T10:42:16;29.10;99.90
16174;DHT22;14031;50.158;8.626;2023-06-10T10:44:44;29.20;99.90
16174;DHT22;14031;50.158;8.626;2023-06-10T10:47:12;29.40;99.90
16174;DHT22;14031;50.158;8.626;2023-06-10T10:49:43;29.50;99.90
16174;DHT22;14031;50.158;8.626;2023-06-10T10:52:12;29.60;99.90
16174;DHT22;14031;50.158;8.626;2023-06-10T10:54:43;29.70;99.90
16174;DHT22;14031;50.158;8.626;2023-06-10T10:57:13;29.80;99.90
16174;DHT22;14031;50.158;8.626;2023-06-10T11:02:38;30.00;99.90
16174;DHT22;14031;50.158;8.626;2023-06-10T11:05:08;30.10;99.90
16174;DHT22;14031;50.158;8.626;2023-06-10T11:07:35;30.20;99.90
16174;DHT22;14031;50.158;8.626;2023-06-10T11:10:05;30.30;99.90
16174;DHT22;14031;50.158;8.626;2023-06-10T11:12:53;30.50;99.90
16174;DHT22;14031;50.158;8.626;2023-06-10T11:15:22;30.70;99.90
16174;DHT22;14031;50.158;8.626;2023-06-10T11:18:23;30.90;99.90
16174;DHT22;14031;50.158;8.626;2023-06-10T11:21:00;31.20;99.90
16174;DHT22;14031;50.158;8.626;2023-06-10T11:23:39;31.30;99.90
16174;DHT22;14031;50.158;8.626;2023-06-10T11:26:17;31.40;99.90
16174;DHT22;14031;50.158;8.626;2023-06-10T11:29:08;31.30;98.10
16174;DHT22;14031;50.158;8.626;2023-06-10T11:31:44;31.30;99.80
16174;DHT22;14031;50.158;8.626;2023-06-10T11:34:13;31.30;99.90
16174;DHT22;14031;50.158;8.626;2023-06-10T11:36:40;31.30;97.90
16174;DHT22;14031;50.158;8.626;2023-06-10T11:39:09;31.30;97.30
16174;DHT22;14031;50.158;8.626;2023-06-10T11:41:37;31.50;98.00
16174;DHT22;14031;50.158;8.626;2023-06-10T11:44:09;31.60;97.60
16174;DHT22;14031;50.158;8.626;2023-06-10T11:46:36;31.80;98.10
16174;DHT22;14031;50.158;8.626;2023-06-10T11:49:04;31.90;97.70
16174;DHT22;14031;50.158;8.626;2023-06-10T11:51:33;31.90;97.20
16174;DHT22;14031;50.158;8.626;2023-06-10T11:54:01;31.80;96.60
16174;DHT22;14031;50.158;8.626;2023-06-10T11:56:30;31.50;96.40
16174;DHT22;14031;50.158;8.626;2023-06-10T11:58:58;31.50;97.00
16174;DHT22;14031;50.158;8.626;2023-06-10T12:01:32;31.60;97.40
16174;DHT22;14031;50.158;8.626;2023-06-10T12:04:00;31.70;96.80
16174;DHT22;14031;50.158;8.626;2023-06-10T12:06:37;31.70;97.40
16174;DHT22;14031;50.158;8.626;2023-06-10T12:09:03;31.60;98.00
16174;DHT22;14031;50.158;8.626;2023-06-10T12:11:31;31.60;98.20
16174;DHT22;14031;50.158;8.626;2023-06-10T12:13:57;31.90;97.70
16174;DHT22;14031;50.158;8.626;2023-06-10T12:16:24;32.00;95.00
16174;DHT22;14031;50.158;8.626;2023-06-10T12:19:01;32.10;94.70
16174;DHT22;14031;50.158;8.626;2023-06-10T12:21:28;32.10;95.30
16174;DHT22;14031;50.158;8.626;2023-06-10T12:24:06;32.10;95.60
16174;DHT22;14031;50.158;8.626;2023-06-10T12:26:40;32.20;96.20
16174;DHT22;14031;50.158;8.626;2023-06-10T12:29:18;32.30;95.20
16174;DHT22;14031;50.158;8.626;2023-06-10T12:31:59;32.50;97.00
16174;DHT22;14031;50.158;8.626;2023-06-10T12:34:36;32.70;96.60
16174;DHT22;14031;50.158;8.626;2023-06-10T12:37:04;32.90;95.90
16174;DHT22;14031;50.158;8.626;2023-06-10T12:39:32;33.00;94.50
16174;DHT22;14031;50.158;8.626;2023-06-10T12:42:00;33.20;92.60
16174;DHT22;14031;50.158;8.626;2023-06-10T12:44:33;33.30;92.40
16174;DHT22;14031;50.158;8.626;2023-06-10T12:47:01;33.10;91.40
16174;DHT22;14031;50.158;8.626;2023-06-10T12:49:34;33.10;92.40
16174;DHT22;14031;50.158;8.626;2023-06-10T12:52:01;33.10;93.50
16174;DHT22;14031;50.158;8.626;2023-06-10T12:54:28;33.20;93.50
16174;DHT22;14031;50.158;8.626;2023-06-10T12:56:55;33.20;93.20
16174;DHT22;14031;50.158;8.626;2023-06-10T12:59:22;33.50;94.50
16174;DHT22;14031;50.158;8.626;2023-06-10T13:01:50;33.60;92.10
16174;DHT22;14031;50.158;8.626;2023-06-10T13:04:17;33.80;91.30
16174;DHT22;14031;50.158;8.626;2023-06-10T13:06:46;34.00;93.00
16174;DHT22;14031;50.158;8.626;2023-06-10T13:09:15;34.30;92.50
16174;DHT22;14031;50.158;8.626;2023-06-10T13:11:42;34.50;90.40
16174;DHT22;14031;50.158;8.626;2023-06-10T13:14:10;34.70;90.20
16174;DHT22;14031;50.158;8.626;2023-06-10T13:16:37;34.70;85.70
16174;DHT22;14031;50.158;8.626;2023-06-10T13:19:05;34.80;87.70
16174;DHT22;14031;50.158;8.626;2023-06-10T13:21:32;34.90;88.90
16174;DHT22;14031;50.158;8.626;2023-06-10T13:24:00;35.00;90.00
16174;DHT22;14031;50.158;8.626;2023-06-10T13:26:27;35.00;85.20
16174;DHT22;14031;50.158;8.626;2023-06-10T13:28:54;34.80;86.20
16174;DHT22;14031;50.158;8.626;2023-06-10T13:31:20;34.70;88.10
16174;DHT22;14031;50.158;8.626;2023-06-10T13:33:47;34.80;90.10
16174;DHT22;14031;50.158;8.626;2023-06-10T13:36:14;35.10;90.10
16174;DHT22;14031;50.158;8.626;2023-06-10T13:38:41;35.30;87.30
16174;DHT22;14031;50.158;8.626;2023-06-10T13:41:09;35.50;90.10
16174;DHT22;14031;50.158;8.626;2023-06-10T13:43:38;35.60;87.10
16174;DHT22;14031;50.158;8.626;2023-06-10T13:46:04;35.70;87.80
16174;DHT22;14031;50.158;8.626;2023-06-10T13:48:31;35.80;85.90
16174;DHT22;14031;50.158;8.626;2023-06-10T13:50:58;35.90;83.60
16174;DHT22;14031;50.158;8.626;2023-06-10T13:53:26;35.70;79.30
16174;DHT22;14031;50.158;8.626;2023-06-10T13:55:52;35.40;84.80
16174;DHT22;14031;50.158;8.626;2023-06-10T13:58:21;35.30;85.70
16174;DHT22;14031;50.158;8.626;2023-06-10T14:00:47;35.30;85.30
16174;DHT22;14031;50.158;8.626;2023-06-10T14:03:14;35.70;84.70
16174;DHT22;14031;50.158;8.626;2023-06-10T14:05:41;35.90;80.90
16174;DHT22;14031;50.158;8.626;2023-06-10T14:08:08;36.30;78.30
16174;DHT22;14031;50.158;8.626;2023-06-10T14:10:35;36.50;79.20
16174;DHT22;14031;50.158;8.626;2023-06-10T14:13:02;36.80;76.80
16174;DHT22;14031;50.158;8.626;2023-06-10T14:15:30;36.80;78.40
16174;DHT22;14031;50.158;8.626;2023-06-10T14:17:58;37.00;81.40
16174;DHT22;14031;50.158;8.626;2023-06-10T14:20:24;37.30;82.20
16174;DHT22;14031;50.158;8.626;2023-06-10T14:22:52;37.50;79.60
16174;DHT22;14031;50.158;8.626;2023-06-10T14:25:19;37.50;77.90
16174;DHT22;14031;50.158;8.626;2023-06-10T14:27:45;37.80;79.50
16174;DHT22;14031;50.158;8.626;2023-06-10T14:30:13;37.90;76.70
16174;DHT22;14031;50.158;8.626;2023-06-10T14:32:41;38.10;76.50
16174;DHT22;14031;50.158;8.626;2023-06-10T14:35:08;38.30;72.10
16174;DHT22;14031;50.158;8.626;2023-06-10T14:37:35;38.30;71.30
16174;DHT22;14031;50.158;8.626;2023-06-10T14:40:03;38.30;73.00
16174;DHT22;14031;50.158;8.626;2023-06-10T14:42:30;38.40;72.80
16174;DHT22;14031;50.158;8.626;2023-06-10T14:44:58;38.60;70.80
16174;DHT22;14031;50.158;8.626;2023-06-10T14:47:25;38.70;72.70
16174;DHT22;14031;50.158;8.626;2023-06-10T14:49:55;38.80;67.60
16174;DHT22;14031;50.158;8.626;2023-06-10T14:52:21;38.90;70.80
16174;DHT22;14031;50.158;8.626;2023-06-10T14:54:48;38.90;70.10
16174;DHT22;14031;50.158;8.626;2023-06-10T14:57:15;39.10;69.00
16174;DHT22;14031;50.158;8.626;2023-06-10T14:59:42;39.00;65.80
16174;DHT22;14031;50.158;8.626;2023-06-10T15:02:08;39.10;67.70
16174;DHT22;14031;50.158;8.626;2023-06-10T15:04:35;39.20;66.30
16174;DHT22;14031;50.158;8.626;2023-06-10T15:07:04;39.10;62.80
16174;DHT22;14031;50.158;8.626;2023-06-10T15:09:31;39.00;68.10
16174;DHT22;14031;50.158;8.626;2023-06-10T15:11:58;39.10;67.10
16174;DHT22;14031;50.158;8.626;2023-06-10T15:14:25;39.20;66.20
16174;DHT22;14031;50.158;8.626;2023-06-10T15:16:52;39.10;62.10
16174;DHT22;14031;50.158;8.626;2023-06-10T15:19:19;39.20;62.20
16174;DHT22;14031;50.158;8.626;2023-06-10T15:21:46;39.10;62.10
16174;DHT22;14031;50.158;8.626;2023-06-10T15:24:14;39.20;63.90
16174;DHT22;14031;50.158;8.626;2023-06-10T15:26:41;39.30;64.90
16174;DHT22;14031;50.158;8.626;2023-06-10T15:29:07;39.30;64.20
16174;DHT22;14031;50.158;8.626;2023-06-10T15:31:35;39.30;62.00
16174;DHT22;14031;50.158;8.626;2023-06-10T15:34:02;39.30;60.70
16174;DHT22;14031;50.158;8.626;2023-06-10T15:36:29;39.30;62.80
16174;DHT22;14031;50.158;8.626;2023-06-10T15:39:00;39.20;62.20